createdAt,value
2023-04-23T00:01:30.229Z,7.95
2023-04-23T00:03:58.894Z,7.03
2023-04-23T00:06:26.975Z,7.32
2023-04-23T00:08:55.454Z,7.60
2023-04-23T00:11:23.587Z,8.70
2023-04-23T00:13:51.181Z,5.90
2023-04-23T00:16:19.894Z,7.13
2023-04-23T00:18:47.945Z,6.45
2023-04-23T00:21:15.554Z,6.70
2023-04-23T00:23:42.730Z,7.20
2023-04-23T00:26:10.196Z,9.50
2023-04-23T00:28:37.646Z,6.72
2023-04-23T00:31:05.736Z,6.28
2023-04-23T00:33:32.969Z,6.15
2023-04-23T00:36:00.590Z,10.10
2023-04-23T00:38:28.242Z,6.82
2023-04-23T00:40:55.943Z,8.40
2023-04-23T00:43:24.225Z,9.23
2023-04-23T00:45:52.131Z,6.00
2023-04-23T00:48:19.308Z,5.30
2023-04-23T00:50:47.014Z,9.38
2023-04-23T00:53:14.304Z,8.20
2023-04-23T00:55:41.877Z,8.15
2023-04-23T00:58:09.265Z,7.97
2023-04-23T01:00:45.182Z,6.13
2023-04-23T01:03:13.392Z,8.57
2023-04-23T01:05:43.061Z,7.97
2023-04-23T01:08:15.268Z,6.97
2023-04-23T01:10:44.794Z,7.45
2023-04-23T01:13:15.653Z,7.30
2023-04-23T01:15:44.494Z,9.40
2023-04-23T01:18:12.893Z,9.38
2023-04-23T01:20:40.790Z,7.90
2023-04-23T01:23:08.190Z,10.32
2023-04-23T01:25:36.392Z,9.38
2023-04-23T01:28:04.860Z,11.60
2023-04-23T01:30:33.524Z,10.82
2023-04-23T01:33:02.644Z,9.02
2023-04-23T01:35:31.231Z,7.13
2023-04-23T01:38:00.887Z,9.95
2023-04-23T01:40:28.544Z,6.72
2023-04-23T01:42:56.787Z,9.20
2023-04-23T01:45:24.795Z,10.48
2023-04-23T01:47:53.798Z,12.18
2023-04-23T01:50:24.477Z,8.48
2023-04-23T01:52:51.836Z,8.00
2023-04-23T01:55:20.975Z,12.75
2023-04-23T01:57:48.404Z,10.23
2023-04-23T02:00:17.246Z,9.43
2023-04-23T02:02:45.154Z,11.00
2023-04-23T02:05:16.602Z,10.38
2023-04-23T02:07:45.068Z,10.80
2023-04-23T02:10:13.126Z,9.63
2023-04-23T02:12:40.508Z,7.60
2023-04-23T02:15:11.923Z,8.98
2023-04-23T02:17:41.970Z,10.68
2023-04-23T02:20:10.632Z,10.82
2023-04-23T02:22:40.919Z,10.75
2023-04-23T02:25:09.104Z,10.18
2023-04-23T02:27:36.848Z,8.93
2023-04-23T02:30:05.093Z,10.25
2023-04-23T02:32:32.536Z,10.60
2023-04-23T02:35:02.112Z,10.05
2023-04-23T02:37:29.421Z,9.80
2023-04-23T02:39:56.901Z,11.55
2023-04-23T02:42:24.154Z,11.27
2023-04-23T02:44:51.617Z,10.68
2023-04-23T02:47:19.332Z,11.55
2023-04-23T02:49:46.940Z,11.75
2023-04-23T02:52:14.145Z,12.70
2023-04-23T02:54:42.014Z,12.60
2023-04-23T02:57:09.634Z,11.57
2023-04-23T02:59:37.682Z,10.18
2023-04-23T03:02:04.960Z,13.70
2023-04-23T03:04:32.600Z,12.15
2023-04-23T03:06:59.762Z,13.43
2023-04-23T03:09:27.267Z,11.20
2023-04-23T03:11:54.558Z,11.85
2023-04-23T03:14:22.101Z,12.88
2023-04-23T03:16:49.310Z,9.93
2023-04-23T03:19:17.393Z,10.75
2023-04-23T03:21:44.620Z,11.45
2023-04-23T03:24:13.643Z,13.32
2023-04-23T03:26:41.268Z,10.95
2023-04-23T03:29:10.704Z,11.70
2023-04-23T03:31:38.256Z,13.43
2023-04-23T03:34:06.548Z,9.77
2023-04-23T03:36:35.617Z,11.82
2023-04-23T03:39:03.997Z,12.85
2023-04-23T03:41:43.537Z,14.25
2023-04-23T03:44:12.648Z,11.45
2023-04-23T03:46:42.570Z,11.40
2023-04-23T03:49:10.811Z,14.57
2023-04-23T03:51:38.282Z,13.43
2023-04-23T03:54:05.866Z,11.38
2023-04-23T03:56:41.187Z,12.77
2023-04-23T03:59:18.877Z,12.95
2023-04-23T04:01:48.760Z,11.95
2023-04-23T04:04:16.828Z,14.45
2023-04-23T04:06:44.160Z,14.88
2023-04-23T04:09:11.660Z,13.20
2023-04-23T04:11:39.000Z,13.15
2023-04-23T04:14:06.486Z,10.43
2023-04-23T04:16:33.746Z,13.43
2023-04-23T04:19:01.655Z,12.65
2023-04-23T04:21:28.805Z,12.02
2023-04-23T04:23:56.570Z,12.98
2023-04-23T04:26:23.777Z,12.57
2023-04-23T04:28:51.556Z,11.80
2023-04-23T04:31:20.567Z,11.55
2023-04-23T04:33:48.328Z,12.35
2023-04-23T04:36:15.700Z,11.45
2023-04-23T04:38:43.953Z,11.82
2023-04-23T04:41:11.565Z,11.43
2023-04-23T04:43:40.284Z,14.95
2023-04-23T04:46:07.759Z,12.13
2023-04-23T04:48:35.358Z,12.23
2023-04-23T04:51:02.663Z,12.52
2023-04-23T04:53:30.232Z,15.30
2023-04-23T04:55:57.407Z,13.35
2023-04-23T04:58:24.945Z,12.77
2023-04-23T05:00:52.298Z,10.50
2023-04-23T05:03:20.260Z,11.25
2023-04-23T05:05:48.750Z,11.40
2023-04-23T05:08:21.498Z,13.68
2023-04-23T05:10:50.520Z,11.93
2023-04-23T05:13:18.015Z,11.63
2023-04-23T05:15:46.291Z,11.93
2023-04-23T05:18:13.829Z,13.77
2023-04-23T05:20:41.711Z,12.13
2023-04-23T05:23:09.185Z,12.07
2023-04-23T05:25:36.337Z,10.93
2023-04-23T05:28:04.321Z,9.48
2023-04-23T05:30:31.547Z,12.98
2023-04-23T05:32:59.051Z,14.27
2023-04-23T05:35:26.269Z,13.38
2023-04-23T05:37:54.019Z,12.80
2023-04-23T05:40:21.249Z,11.57
2023-04-23T05:42:49.200Z,12.45
2023-04-23T05:45:16.454Z,12.90
2023-04-23T05:47:43.987Z,12.77
2023-04-23T05:50:11.708Z,13.68
2023-04-23T05:52:39.590Z,11.60
2023-04-23T05:55:09.827Z,9.98
2023-04-23T05:57:39.230Z,11.43
2023-04-23T06:00:09.861Z,12.75
2023-04-23T06:02:41.405Z,9.02
2023-04-23T06:05:09.503Z,10.35
2023-04-23T06:07:37.273Z,14.88
2023-04-23T06:10:05.718Z,13.52
2023-04-23T06:12:33.288Z,11.25
2023-04-23T06:15:00.577Z,10.57
2023-04-23T06:17:28.083Z,11.85
2023-04-23T06:19:55.390Z,12.07
2023-04-23T06:22:22.855Z,8.80
2023-04-23T06:24:50.058Z,9.98
2023-04-23T06:27:17.526Z,10.10
2023-04-23T06:29:49.413Z,11.80
2023-04-23T06:32:19.778Z,9.32
2023-04-23T06:35:00.392Z,11.23
2023-04-23T06:39:59.574Z,12.57
2023-04-23T06:42:27.079Z,10.82
2023-04-23T06:45:26.631Z,17.23
2023-04-23T06:47:54.146Z,11.05
2023-04-23T06:50:21.426Z,14.15
2023-04-23T06:52:48.962Z,9.90
2023-04-23T06:55:16.257Z,14.80
2023-04-23T06:57:43.785Z,12.88
2023-04-23T07:00:11.917Z,10.15
2023-04-23T07:02:42.215Z,13.18
2023-04-23T07:05:10.649Z,9.50
2023-04-23T07:07:38.564Z,12.82
2023-04-23T07:10:07.152Z,11.07
2023-04-23T07:12:34.740Z,12.00
2023-04-23T07:15:02.284Z,9.50
2023-04-23T07:17:29.843Z,11.68
2023-04-23T07:19:57.377Z,9.85
2023-04-23T07:22:26.590Z,10.20
2023-04-23T07:24:54.282Z,12.65
2023-04-23T07:27:21.911Z,10.10
2023-04-23T07:29:49.097Z,9.98
2023-04-23T07:32:16.995Z,9.95
2023-04-23T07:34:44.426Z,11.23
2023-04-23T07:37:11.987Z,10.95
2023-04-23T07:39:40.035Z,9.98
2023-04-23T07:42:09.413Z,16.65
2023-04-23T07:44:36.684Z,9.50
2023-04-23T07:47:04.224Z,12.38
2023-04-23T07:49:31.467Z,9.63
2023-04-23T07:51:58.960Z,9.75
2023-04-23T07:54:26.727Z,11.13
2023-04-23T07:56:54.221Z,12.30
2023-04-23T07:59:21.597Z,12.02
2023-04-23T08:01:49.062Z,9.70
2023-04-23T08:04:16.368Z,11.45
2023-04-23T08:06:44.206Z,11.38
2023-04-23T08:09:11.473Z,12.90
2023-04-23T08:11:38.933Z,10.48
2023-04-23T08:14:06.289Z,10.07
2023-04-23T08:16:35.265Z,9.50
2023-04-23T08:19:06.257Z,13.32
2023-04-23T08:21:35.481Z,11.23
2023-04-23T08:24:03.285Z,10.52
2023-04-23T08:26:31.578Z,11.60
2023-04-23T08:29:00.743Z,9.45
2023-04-23T08:31:28.606Z,10.25
2023-04-23T08:33:56.210Z,7.85
2023-04-23T08:36:24.517Z,8.90
2023-04-23T08:38:51.685Z,9.02
2023-04-23T08:41:23.492Z,11.60
2023-04-23T08:44:09.727Z,8.20
2023-04-23T08:46:38.223Z,10.77
2023-04-23T08:49:08.545Z,8.63
2023-04-23T08:51:42.946Z,9.73
2023-04-23T08:54:15.952Z,9.02
2023-04-23T08:56:44.950Z,10.85
2023-04-23T08:59:12.239Z,12.57
2023-04-23T09:01:41.545Z,11.32
2023-04-23T09:04:10.140Z,15.50
2023-04-23T09:06:37.874Z,10.25
2023-04-23T09:09:07.468Z,9.23
2023-04-23T09:11:38.238Z,10.10
2023-04-23T09:14:05.525Z,9.32
2023-04-23T09:16:33.176Z,7.70
2023-04-23T09:19:00.528Z,8.20
2023-04-23T09:21:28.128Z,9.45
2023-04-23T09:23:55.244Z,10.82
2023-04-23T09:26:23.171Z,9.20
2023-04-23T09:28:53.697Z,7.55
2023-04-23T09:31:22.955Z,10.35
2023-04-23T09:33:54.547Z,10.18
2023-04-23T09:36:23.839Z,9.27
2023-04-23T09:38:55.961Z,8.40
2023-04-23T09:41:25.855Z,9.90
2023-04-23T09:43:56.456Z,7.47
2023-04-23T09:46:34.396Z,11.57
2023-04-23T09:49:07.959Z,7.28
2023-04-23T09:51:40.755Z,8.20
2023-04-23T09:54:12.894Z,7.50
2023-04-23T09:56:43.699Z,9.63
2023-04-23T09:59:32.076Z,7.43
2023-04-23T10:02:06.403Z,11.43
2023-04-23T10:04:34.848Z,5.80
2023-04-23T10:07:18.056Z,6.18
2023-04-23T10:09:47.309Z,7.30
2023-04-23T10:14:46.598Z,5.17
2023-04-23T10:17:14.126Z,7.97
2023-04-23T10:19:43.481Z,8.07
2023-04-23T10:22:19.623Z,10.13
2023-04-23T10:24:52.260Z,9.77
2023-04-23T10:29:53.931Z,8.02
2023-04-23T10:32:21.879Z,9.73
2023-04-23T10:34:49.482Z,14.00
2023-04-23T10:37:19.550Z,9.57
2023-04-23T10:39:54.516Z,10.05
2023-04-23T10:42:23.648Z,7.40
2023-04-23T10:45:00.918Z,6.45
2023-04-23T10:47:31.233Z,7.30
2023-04-23T10:49:58.489Z,8.98
2023-04-23T10:52:26.327Z,7.43
2023-04-23T10:55:00.214Z,8.73
2023-04-23T10:57:28.138Z,8.43
2023-04-23T10:59:56.467Z,9.00
2023-04-23T11:02:24.876Z,7.45
2023-04-23T11:05:01.521Z,7.53
2023-04-23T11:07:33.281Z,6.35
2023-04-23T11:10:14.711Z,10.65
2023-04-23T11:12:44.214Z,8.95
2023-04-23T11:15:12.619Z,11.82
2023-04-23T11:17:47.524Z,6.60
2023-04-23T11:20:16.383Z,7.93
2023-04-23T11:22:45.876Z,8.07
2023-04-23T11:25:20.584Z,8.95
2023-04-23T11:27:50.318Z,10.70
2023-04-23T11:30:22.514Z,8.85
2023-04-23T11:32:52.289Z,4.88
2023-04-23T11:35:21.880Z,7.20
2023-04-23T11:37:49.676Z,7.22
2023-04-23T11:40:21.149Z,7.65
2023-04-23T11:42:55.602Z,13.95
2023-04-23T11:45:28.526Z,4.60
2023-04-23T11:47:59.139Z,6.07
2023-04-23T11:50:33.347Z,5.30
2023-04-23T11:53:10.532Z,5.30
2023-04-23T11:55:44.159Z,7.65
2023-04-23T11:58:11.887Z,4.70
2023-04-23T12:00:39.108Z,4.20
2023-04-23T12:03:07.263Z,7.88
2023-04-23T12:05:42.422Z,4.95
2023-04-23T12:08:17.814Z,7.40
2023-04-23T12:10:49.905Z,4.25
2023-04-23T12:13:19.683Z,6.90
2023-04-23T12:15:48.557Z,9.40
2023-04-23T12:18:16.911Z,9.98
2023-04-23T12:20:44.620Z,5.65
2023-04-23T12:23:12.594Z,7.85
2023-04-23T12:25:42.369Z,7.03
2023-04-23T12:28:10.009Z,6.43
2023-04-23T12:30:44.056Z,10.70
2023-04-23T12:33:13.128Z,5.47
2023-04-23T12:35:51.681Z,5.00
2023-04-23T12:38:27.141Z,5.75
2023-04-23T12:40:59.400Z,5.50
2023-04-23T12:43:27.430Z,6.30
2023-04-23T12:45:55.074Z,4.70
2023-04-23T12:48:22.526Z,8.07
2023-04-23T12:50:49.713Z,8.98
2023-04-23T12:53:18.881Z,6.45
2023-04-23T12:55:46.244Z,5.75
2023-04-23T12:58:13.755Z,5.20
2023-04-23T13:00:41.039Z,6.25
2023-04-23T13:03:09.143Z,6.38
2023-04-23T13:05:36.587Z,6.28
2023-04-23T13:08:04.045Z,6.93
2023-04-23T13:10:31.284Z,9.15
2023-04-23T13:12:58.743Z,8.60
2023-04-23T13:15:27.120Z,5.40
2023-04-23T13:17:54.764Z,7.57
2023-04-23T13:20:22.130Z,8.18
2023-04-23T13:22:49.589Z,4.40
2023-04-23T13:25:16.816Z,4.93
2023-04-23T13:27:44.416Z,6.97
2023-04-23T13:30:12.235Z,4.70
2023-04-23T13:32:39.806Z,7.65
2023-04-23T13:35:07.738Z,5.88
2023-04-23T13:37:35.247Z,4.78
2023-04-23T13:40:02.865Z,5.28
2023-04-23T13:42:31.246Z,6.65
2023-04-23T13:44:58.459Z,6.97
2023-04-23T13:47:27.526Z,6.28
2023-04-23T13:49:54.858Z,6.20
2023-04-23T13:52:22.365Z,6.55
2023-04-23T13:54:50.929Z,6.93
2023-04-23T13:57:18.550Z,5.10
2023-04-23T13:59:45.789Z,9.85
2023-04-23T14:02:13.296Z,6.50
2023-04-23T14:04:40.690Z,3.75
2023-04-23T14:07:08.301Z,5.65
2023-04-23T14:09:35.474Z,5.10
2023-04-23T14:12:03.023Z,6.75
2023-04-23T14:14:30.393Z,6.95
2023-04-23T14:16:57.945Z,3.90
2023-04-23T14:19:25.222Z,4.95
2023-04-23T14:21:52.936Z,5.55
2023-04-23T14:24:27.605Z,7.63
2023-04-23T14:26:55.533Z,5.93
2023-04-23T14:29:50.694Z,9.65
2023-04-23T14:32:18.192Z,9.02
2023-04-23T14:34:45.466Z,4.55
2023-04-23T14:37:13.099Z,5.07
2023-04-23T14:39:41.547Z,6.97
2023-04-23T14:42:09.691Z,5.82
2023-04-23T14:44:36.983Z,5.88
2023-04-23T14:47:06.335Z,5.85
2023-04-23T14:49:33.781Z,8.27
2023-04-23T14:52:03.108Z,6.68
2023-04-23T14:54:30.253Z,7.22
2023-04-23T14:56:57.721Z,5.10
2023-04-23T14:59:25.094Z,6.78
2023-04-23T15:01:52.701Z,5.57
2023-04-23T15:04:20.142Z,5.40
2023-04-23T15:06:47.805Z,9.60
2023-04-23T15:09:15.031Z,7.75
2023-04-23T15:11:43.373Z,3.78
2023-04-23T15:14:37.258Z,4.53
2023-04-23T15:17:04.842Z,6.40
2023-04-23T15:19:32.984Z,6.43
2023-04-23T15:22:00.530Z,6.63
2023-04-23T15:24:27.797Z,4.70
2023-04-23T15:26:58.152Z,3.80
2023-04-23T15:29:25.507Z,5.72
2023-04-23T15:31:58.159Z,8.40
2023-04-23T15:34:25.703Z,6.47
2023-04-23T15:36:53.172Z,6.05
2023-04-23T15:39:20.416Z,6.30
2023-04-23T15:41:47.990Z,4.55
2023-04-23T15:44:15.466Z,7.57
2023-04-23T15:46:43.001Z,6.47
2023-04-23T15:49:10.516Z,4.05
2023-04-23T15:51:38.025Z,5.13
2023-04-23T15:54:08.453Z,8.93
2023-04-23T15:56:37.102Z,5.30
2023-04-23T15:59:04.492Z,8.07
2023-04-23T16:01:32.014Z,4.93
2023-04-23T16:06:29.581Z,4.28
2023-04-23T16:08:56.776Z,6.38
2023-04-23T16:11:27.684Z,4.65
2023-04-23T16:13:56.206Z,7.80
2023-04-23T16:16:23.755Z,6.72
2023-04-23T16:18:50.962Z,7.63
2023-04-23T16:21:18.442Z,6.82
2023-04-23T16:23:46.239Z,4.70
2023-04-23T16:26:13.727Z,6.57
2023-04-23T16:28:41.224Z,3.58
2023-04-23T16:31:08.798Z,5.00
2023-04-23T16:33:36.028Z,3.90
2023-04-23T16:36:03.940Z,5.97
2023-04-23T16:38:31.153Z,7.00
2023-04-23T16:40:58.699Z,4.47
2023-04-23T16:43:25.969Z,8.23
2023-04-23T16:45:53.553Z,7.30
2023-04-23T16:48:21.364Z,4.65
2023-04-23T16:50:48.917Z,4.65
2023-04-23T16:53:16.145Z,5.20
2023-04-23T16:55:43.806Z,9.88
2023-04-23T16:58:11.163Z,11.02
2023-04-23T17:00:38.717Z,9.35
2023-04-23T17:03:06.196Z,7.72
2023-04-23T17:05:34.470Z,7.85
2023-04-23T17:08:01.848Z,10.20
2023-04-23T17:10:29.553Z,8.07
2023-04-23T17:12:57.070Z,8.65
2023-04-23T17:15:24.797Z,13.60
2023-04-23T17:17:52.970Z,9.82
2023-04-23T17:20:22.120Z,8.55
2023-04-23T17:22:49.424Z,9.75
2023-04-23T17:25:16.911Z,10.85
2023-04-23T17:27:44.329Z,10.45
2023-04-23T17:30:12.295Z,10.20
2023-04-23T17:32:39.548Z,10.35
2023-04-23T17:35:10.686Z,8.48
2023-04-23T17:37:38.279Z,9.77
2023-04-23T17:40:06.452Z,11.50
2023-04-23T17:42:33.688Z,13.00
2023-04-23T17:45:01.422Z,11.02
2023-04-23T17:47:29.142Z,10.85
2023-04-23T17:49:56.752Z,12.88
2023-04-23T17:52:23.968Z,10.95
2023-04-23T17:54:51.467Z,12.18
2023-04-23T17:57:18.654Z,10.25
2023-04-23T17:59:46.121Z,10.88
2023-04-23T18:02:13.545Z,8.88
2023-04-23T18:04:41.355Z,13.45
2023-04-23T18:07:08.528Z,11.45
2023-04-23T18:09:36.110Z,12.45
2023-04-23T18:12:04.843Z,13.63
2023-04-23T18:14:32.584Z,10.65
2023-04-23T18:16:59.904Z,12.82
2023-04-23T18:19:27.487Z,11.20
2023-04-23T18:21:55.842Z,13.63
2023-04-23T18:24:23.360Z,11.18
2023-04-23T18:26:52.207Z,14.35
2023-04-23T18:29:19.868Z,11.07
2023-04-23T18:31:47.052Z,12.95
2023-04-23T18:34:18.808Z,18.30
2023-04-23T18:36:49.898Z,13.57
2023-04-23T18:39:17.379Z,13.38
2023-04-23T18:41:44.896Z,14.05
2023-04-23T18:44:15.373Z,11.95
2023-04-23T18:46:42.930Z,12.00
2023-04-23T18:49:29.282Z,15.18
2023-04-23T18:51:56.885Z,11.57
2023-04-23T18:54:25.951Z,13.88
2023-04-23T18:56:55.657Z,13.57
2023-04-23T18:59:23.309Z,14.55
2023-04-23T19:01:50.757Z,11.68
2023-04-23T19:04:18.667Z,11.43
2023-04-23T19:06:45.939Z,16.42
2023-04-23T19:09:13.413Z,15.43
2023-04-23T19:11:40.603Z,14.75
2023-04-23T19:14:08.109Z,13.13
2023-04-23T19:16:35.501Z,14.73
2023-04-23T19:19:03.164Z,13.57
2023-04-23T19:21:30.380Z,14.57
2023-04-23T19:23:57.892Z,14.10
2023-04-23T19:26:25.178Z,11.98
2023-04-23T19:28:52.661Z,14.55
2023-04-23T19:31:19.976Z,12.85
2023-04-23T19:33:47.728Z,11.30
2023-04-23T19:36:14.946Z,12.65
2023-04-23T19:38:42.496Z,12.82
2023-04-23T19:41:09.811Z,15.38
2023-04-23T19:43:37.404Z,15.98
2023-04-23T19:46:04.643Z,14.52
2023-04-23T19:48:32.473Z,16.42
2023-04-23T19:50:59.703Z,16.00
2023-04-23T19:53:27.646Z,12.48
2023-04-23T19:55:55.024Z,12.85
2023-04-23T19:58:23.209Z,10.88
2023-04-23T20:00:51.017Z,14.25
2023-04-23T20:03:18.836Z,19.10
2023-04-23T20:05:48.244Z,15.80
2023-04-23T20:08:25.847Z,15.18
2023-04-23T20:10:53.772Z,22.45
2023-04-23T20:13:21.561Z,44.33
2023-04-23T20:15:50.151Z,38.47
2023-04-23T20:18:18.550Z,35.88
2023-04-23T20:20:45.788Z,31.52
2023-04-23T20:23:13.385Z,29.13
2023-04-23T20:25:40.604Z,22.75
2023-04-23T20:28:10.958Z,20.13
2023-04-23T20:30:38.186Z,16.00
2023-04-23T20:33:06.080Z,18.73
2023-04-23T20:35:34.514Z,17.23
2023-04-23T20:38:02.286Z,17.20
2023-04-23T20:40:34.512Z,16.75
2023-04-23T20:43:02.249Z,19.02
2023-04-23T20:45:29.531Z,19.65
2023-04-23T20:47:57.601Z,18.73
2023-04-23T20:50:25.016Z,20.02
2023-04-23T20:52:52.519Z,24.77
2023-04-23T20:55:19.857Z,20.40
2023-04-23T20:57:47.341Z,18.58
2023-04-23T21:00:15.032Z,16.70
2023-04-23T21:02:42.794Z,18.65
2023-04-23T21:05:12.173Z,17.25
2023-04-23T21:07:39.833Z,16.55
2023-04-23T21:10:07.559Z,17.58
2023-04-23T21:12:35.347Z,21.10
2023-04-23T21:15:02.553Z,17.60
2023-04-23T21:17:30.078Z,22.05
2023-04-23T21:19:57.407Z,25.23
2023-04-23T21:22:24.869Z,24.35
2023-04-23T21:24:52.078Z,20.65
2023-04-23T21:27:21.982Z,21.25
2023-04-23T21:29:49.468Z,22.38
2023-04-23T21:32:17.263Z,19.33
2023-04-23T21:34:44.534Z,18.38
2023-04-23T21:37:12.054Z,18.98
2023-04-23T21:39:39.212Z,16.70
2023-04-23T21:42:07.459Z,18.17
2023-04-23T21:44:36.687Z,17.52
2023-04-23T21:47:04.651Z,16.35
2023-04-23T21:49:32.847Z,23.23
2023-04-23T21:52:02.280Z,21.92
2023-04-23T21:54:29.899Z,19.58
2023-04-23T21:56:57.381Z,20.35
2023-04-23T21:59:24.861Z,26.00
2023-04-23T22:01:52.426Z,26.77
2023-04-23T22:04:20.696Z,28.98
2023-04-23T22:06:48.439Z,25.33
2023-04-23T22:09:15.923Z,30.42
2023-04-23T22:11:55.275Z,31.17
2023-04-23T22:14:28.687Z,28.05
2023-04-23T22:16:58.745Z,27.77
2023-04-23T22:19:26.135Z,26.15
2023-04-23T22:21:55.009Z,25.20
2023-04-23T22:24:22.792Z,25.23
2023-04-23T22:26:50.380Z,27.60
2023-04-23T22:29:17.611Z,27.80
2023-04-23T22:31:45.142Z,28.73
2023-04-23T22:34:12.411Z,26.17
2023-04-23T22:36:43.166Z,25.80
2023-04-23T22:39:10.889Z,25.63
2023-04-23T22:41:40.377Z,23.45
2023-04-23T22:44:09.412Z,22.48
2023-04-23T22:46:37.406Z,24.30
2023-04-23T22:49:07.887Z,22.23
2023-04-23T22:51:36.082Z,26.02
2023-04-23T22:54:03.387Z,23.65
2023-04-23T22:56:30.931Z,27.10
2023-04-23T22:58:58.112Z,24.52
2023-04-23T23:01:26.456Z,26.27
2023-04-23T23:03:54.313Z,23.25
2023-04-23T23:06:22.212Z,20.15
2023-04-23T23:08:49.439Z,27.30
2023-04-23T23:11:17.006Z,23.55
2023-04-23T23:13:45.434Z,23.17
2023-04-23T23:16:12.952Z,23.10
2023-04-23T23:18:40.310Z,24.10
2023-04-23T23:21:08.019Z,29.52
2023-04-23T23:23:35.366Z,24.90
2023-04-23T23:26:02.822Z,23.67
2023-04-23T23:28:29.981Z,24.00
2023-04-23T23:30:57.926Z,22.38
2023-04-23T23:33:25.261Z,24.90
2023-04-23T23:35:52.723Z,26.38
2023-04-23T23:38:19.890Z,24.90
2023-04-23T23:40:47.546Z,24.80
2023-04-23T23:43:14.759Z,31.45
2023-04-23T23:45:42.185Z,28.67
2023-04-23T23:48:09.757Z,25.05
2023-04-23T23:50:37.266Z,24.73
2023-04-23T23:53:04.425Z,29.73
2023-04-23T23:55:32.083Z,27.20
2023-04-23T23:57:59.788Z,30.80
